createdAt,value
2023-05-02T00:03:54.271Z,29.83
2023-05-02T00:08:58.790Z,29.63
2023-05-02T00:14:03.676Z,26.52
2023-05-02T00:19:06.464Z,31.60
2023-05-02T00:24:11.848Z,27.60
2023-05-02T00:29:14.652Z,28.73
2023-05-02T00:34:17.453Z,33.40
2023-05-02T00:39:21.594Z,31.70
2023-05-02T00:44:24.453Z,33.40
2023-05-02T00:49:27.264Z,35.63
2023-05-02T00:54:32.501Z,34.10
2023-05-02T00:59:36.927Z,32.20
2023-05-02T01:04:48.320Z,34.47
2023-05-02T01:10:02.922Z,33.33
2023-05-02T01:15:08.801Z,33.92
2023-05-02T01:20:17.409Z,30.63
2023-05-02T01:25:28.638Z,39.85
2023-05-02T01:30:37.774Z,29.17
2023-05-02T01:35:42.429Z,23.63
2023-05-02T01:40:46.746Z,21.95
2023-05-02T01:45:52.581Z,22.88
2023-05-02T01:50:57.262Z,24.25
2023-05-02T01:56:01.574Z,22.25
2023-05-02T02:01:06.594Z,19.55
2023-05-02T02:06:11.015Z,21.95
2023-05-02T02:11:18.675Z,22.15
2023-05-02T02:16:31.647Z,17.65
2023-05-02T02:21:35.939Z,15.93
2023-05-02T02:26:38.756Z,15.95
2023-05-02T02:31:42.881Z,12.35
2023-05-02T02:36:49.144Z,10.20
2023-05-02T02:42:03.603Z,8.18
2023-05-02T02:47:43.630Z,15.45
2023-05-02T02:52:54.690Z,15.45
2023-05-02T02:58:03.523Z,9.40
2023-05-02T03:03:08.937Z,12.23
2023-05-02T03:08:12.013Z,12.43
2023-05-02T03:13:15.164Z,13.95
2023-05-02T03:18:19.770Z,12.32
2023-05-02T03:23:22.727Z,9.40
2023-05-02T03:28:27.753Z,13.40
2023-05-02T03:33:32.694Z,13.40
2023-05-02T03:38:35.743Z,18.48
2023-05-02T03:43:42.434Z,18.45
2023-05-02T03:48:46.707Z,17.35
2023-05-02T03:53:49.731Z,24.33
2023-05-02T03:58:53.148Z,18.33
2023-05-02T04:04:04.110Z,14.05
2023-05-02T04:09:12.351Z,11.95
2023-05-02T04:14:22.644Z,14.77
2023-05-02T04:19:29.233Z,18.52
2023-05-02T04:24:32.114Z,16.52
2023-05-02T04:29:35.040Z,14.77
2023-05-02T04:34:41.097Z,16.45
2023-05-02T04:39:45.097Z,15.85
2023-05-02T04:44:54.869Z,11.32
2023-05-02T04:49:59.559Z,20.58
2023-05-02T04:55:02.534Z,15.50
2023-05-02T05:00:06.674Z,16.02
2023-05-02T05:05:11.233Z,16.23
2023-05-02T05:10:14.227Z,17.67
2023-05-02T05:15:22.493Z,23.85
2023-05-02T05:20:31.518Z,13.32
2023-05-02T05:25:36.749Z,15.55
2023-05-02T05:30:39.910Z,15.80
2023-05-02T05:35:47.500Z,13.73
2023-05-02T05:40:50.889Z,18.10
2023-05-02T05:45:54.664Z,21.08
2023-05-02T05:50:59.114Z,9.60
2023-05-02T05:56:10.652Z,11.70
2023-05-02T06:01:15.445Z,15.40
2023-05-02T06:06:20.095Z,19.58
2023-05-02T06:11:25.190Z,11.88
2023-05-02T06:16:39.874Z,11.20
2023-05-02T06:21:50.314Z,11.85
2023-05-02T06:26:53.121Z,10.20
2023-05-02T06:31:57.026Z,9.20
2023-05-02T06:37:01.283Z,12.85
2023-05-02T06:42:04.205Z,9.35
2023-05-02T06:47:09.155Z,7.85
2023-05-02T06:52:13.470Z,10.10
2023-05-02T06:57:16.737Z,12.93
2023-05-02T07:02:19.525Z,9.73
2023-05-02T07:07:23.724Z,7.90
2023-05-02T07:12:26.962Z,4.35
2023-05-02T07:17:29.756Z,6.97
2023-05-02T07:22:33.966Z,7.90
2023-05-02T07:27:36.786Z,5.43
2023-05-02T07:32:40.053Z,4.82
2023-05-02T07:37:44.293Z,4.72
2023-05-02T07:42:47.029Z,7.95
2023-05-02T07:47:51.059Z,8.30
2023-05-02T07:52:56.181Z,6.95
2023-05-02T07:57:58.935Z,5.32
2023-05-02T08:03:01.908Z,7.05
2023-05-02T08:08:06.486Z,6.38
2023-05-02T08:13:09.307Z,9.15
2023-05-02T08:18:12.134Z,7.78
2023-05-02T08:23:16.704Z,11.88
2023-05-02T08:28:19.826Z,6.88
2023-05-02T08:33:23.286Z,5.97
2023-05-02T08:38:27.707Z,9.65
2023-05-02T08:43:33.456Z,8.82
2023-05-02T08:48:37.818Z,6.40
2023-05-02T08:53:43.076Z,6.45
2023-05-02T08:58:45.976Z,5.15
2023-05-02T09:03:49.311Z,5.13
2023-05-02T09:08:53.754Z,5.85
2023-05-02T09:13:58.949Z,7.20
2023-05-02T09:19:01.893Z,5.15
2023-05-02T09:24:16.954Z,7.70
2023-05-02T09:29:21.934Z,3.03
2023-05-02T09:34:24.930Z,4.28
2023-05-02T09:39:30.140Z,4.20
2023-05-02T09:44:39.199Z,3.75
2023-05-02T09:49:44.812Z,2.45
2023-05-02T09:54:50.667Z,2.92
2023-05-02T09:59:57.271Z,6.07
2023-05-02T10:05:02.855Z,3.58
2023-05-02T10:10:09.580Z,4.22
2023-05-02T10:15:16.321Z,4.03
2023-05-02T10:20:24.874Z,4.47
2023-05-02T10:25:30.774Z,3.05
2023-05-02T10:30:36.335Z,2.70
2023-05-02T10:35:45.149Z,5.78
2023-05-02T10:41:01.425Z,6.10
2023-05-02T10:46:04.875Z,4.88
2023-05-02T10:51:14.125Z,5.15
2023-05-02T10:56:21.721Z,5.65
2023-05-02T11:01:38.188Z,5.80
2023-05-02T11:07:19.384Z,4.65
2023-05-02T11:12:46.783Z,6.60
2023-05-02T11:18:08.987Z,5.18
2023-05-02T11:23:25.945Z,4.82
2023-05-02T11:28:49.654Z,4.55
2023-05-02T11:33:57.965Z,3.55
2023-05-02T11:44:06.457Z,4.93
2023-05-02T11:49:11.034Z,3.67
2023-05-02T11:54:20.228Z,6.82
2023-05-02T11:59:24.576Z,2.08
2023-05-02T12:04:28.234Z,6.10
2023-05-02T12:09:30.997Z,3.85
2023-05-02T12:14:37.951Z,4.95
2023-05-02T12:19:41.277Z,5.72
2023-05-02T12:24:44.493Z,5.07
2023-05-02T12:29:50.037Z,4.32
2023-05-02T12:34:52.832Z,4.13
2023-05-02T12:39:56.800Z,2.65
2023-05-02T12:45:01.122Z,4.38
2023-05-02T12:50:04.172Z,4.80
2023-05-02T12:55:17.168Z,3.88
2023-05-02T13:00:21.391Z,3.30
2023-05-02T13:05:24.391Z,2.63
2023-05-02T13:15:45.956Z,3.47
2023-05-02T13:20:48.769Z,4.40
2023-05-02T13:25:51.501Z,3.70
2023-05-02T13:30:55.814Z,3.97
2023-05-02T13:35:58.628Z,5.90
2023-05-02T13:41:01.506Z,5.50
2023-05-02T13:46:05.822Z,5.20
2023-05-02T13:51:08.817Z,5.75
2023-05-02T13:56:11.673Z,5.03
2023-05-02T14:01:15.935Z,4.57
2023-05-02T14:06:19.089Z,4.80
2023-05-02T14:11:22.085Z,3.92
2023-05-02T14:16:26.541Z,4.00
2023-05-02T14:21:29.391Z,3.13
2023-05-02T14:26:32.397Z,2.97
2023-05-02T14:31:36.898Z,5.82
2023-05-02T14:36:39.708Z,4.47
2023-05-02T14:41:42.449Z,5.13
2023-05-02T14:46:46.682Z,2.30
2023-05-02T14:51:50.224Z,4.07
2023-05-02T14:56:53.890Z,2.65
2023-05-02T15:01:58.717Z,5.75
2023-05-02T15:07:08.235Z,4.97
2023-05-02T15:20:04.625Z,5.60
2023-05-02T15:25:10.482Z,4.15
2023-05-02T15:30:14.299Z,3.60
2023-05-02T15:35:18.388Z,4.03
2023-05-02T15:40:22.748Z,5.72
2023-05-02T15:45:30.704Z,6.97
2023-05-02T15:50:33.617Z,3.37
2023-05-02T15:55:37.901Z,6.10
2023-05-02T16:01:10.850Z,6.50
2023-05-02T16:06:20.465Z,6.00
2023-05-02T16:11:25.131Z,7.90
2023-05-02T16:16:28.989Z,5.32
2023-05-02T16:21:34.360Z,7.72
2023-05-02T16:26:38.709Z,3.55
2023-05-02T16:31:44.265Z,5.75
2023-05-02T16:36:48.806Z,4.28
2023-05-02T16:41:53.265Z,8.95
2023-05-02T16:47:29.205Z,4.60
2023-05-02T16:59:56.146Z,2.97
2023-05-02T17:17:53.651Z,5.43
2023-05-02T17:22:56.476Z,4.85
2023-05-02T17:27:59.471Z,5.28
2023-05-02T17:33:03.826Z,5.50
2023-05-02T17:38:07.905Z,7.40
2023-05-02T17:43:10.790Z,4.05
2023-05-02T17:48:19.140Z,4.72
2023-05-02T17:58:28.472Z,4.53
2023-05-02T18:09:28.558Z,8.10
2023-05-02T18:14:43.024Z,3.35
2023-05-02T18:47:57.432Z,4.50
2023-05-02T18:54:38.779Z,7.00
2023-05-02T18:59:52.074Z,5.93
2023-05-02T20:02:00.748Z,4.10
2023-05-02T20:07:05.715Z,3.70
2023-05-02T20:12:10.100Z,6.15
2023-05-02T20:24:56.001Z,6.28
2023-05-02T20:30:00.692Z,6.13
2023-05-02T20:35:07.562Z,5.18
2023-05-02T20:40:14.243Z,6.13
2023-05-02T20:45:18.802Z,8.10
2023-05-02T20:50:23.280Z,8.00
2023-05-02T20:55:26.311Z,5.10
2023-05-02T21:00:29.120Z,7.63
2023-05-02T21:05:33.200Z,6.15
2023-05-02T21:10:36.062Z,4.45
2023-05-02T21:15:40.129Z,4.32
2023-05-02T21:20:44.282Z,7.35
2023-05-02T21:25:48.040Z,13.95
2023-05-02T21:30:50.861Z,3.83
2023-05-02T21:35:59.052Z,7.78
2023-05-02T21:41:02.919Z,5.60
2023-05-02T21:46:05.907Z,6.43
2023-05-02T21:51:11.396Z,5.82
2023-05-02T21:56:14.867Z,9.93
2023-05-02T22:01:18.009Z,6.88
2023-05-02T22:06:22.240Z,5.57
2023-05-02T22:11:25.552Z,6.90
2023-05-02T22:16:28.306Z,6.03
2023-05-02T22:21:32.563Z,7.25
2023-05-02T22:26:37.431Z,5.53
2023-05-02T22:31:40.225Z,6.95
2023-05-02T22:36:44.424Z,3.83
2023-05-02T22:41:47.236Z,6.20
2023-05-02T22:46:50.041Z,5.20
2023-05-02T22:51:57.919Z,6.63
2023-05-02T22:57:01.704Z,6.22
2023-05-02T23:02:04.573Z,5.05
2023-05-02T23:07:08.921Z,4.25
2023-05-02T23:12:11.640Z,7.93
2023-05-02T23:17:14.407Z,6.22
2023-05-02T23:22:18.561Z,4.63
2023-05-02T23:27:21.280Z,6.35
2023-05-02T23:32:26.177Z,7.47
2023-05-02T23:37:30.483Z,8.82
2023-05-02T23:42:34.285Z,5.65
2023-05-02T23:47:37.341Z,6.60
2023-05-02T23:52:41.864Z,5.95
2023-05-02T23:57:44.634Z,4.40
